Time;durP1;ratioP1;P1;durP2;ratioP2;P2;SDS_P1;SDS_P2;PMS_P1;PMS_P2;Temp;Humidity;BMP_temperature;BMP_pressure;BME280_temperature;BME280_humidity;BME280_pressure;Samples;Min_cycle;Max_cycle;Signal;HPM_P1;HPM_P2
2021/01/29 00:01:28;;;;;;;14.40;10.00;;;9.10;99.90;;;;;;483057;246;28609;-74
2021/01/29 00:03:30;;;;;;;10.80;4.40;;;9.10;99.90;;;;;;483126;246;28453;-71
2021/01/29 00:05:31;;;;;;;5.73;3.13;;;9.10;99.90;;;;;;483156;246;27537;-73
2021/01/29 00:07:32;;;;;;;4.67;2.30;;;9.10;99.90;;;;;;483127;246;27958;-72
2021/01/29 00:09:33;;;;;;;6.77;3.20;;;9.10;99.90;;;;;;483103;246;27538;-72
2021/01/29 00:11:34;;;;;;;5.30;2.77;;;9.10;99.90;;;;;;482957;246;27657;-73
2021/01/29 00:13:36;;;;;;;8.87;2.70;;;9.10;99.90;;;;;;483254;246;28028;-72
2021/01/29 00:15:37;;;;;;;18.13;3.33;;;9.20;99.90;;;;;;483101;246;28037;-72
2021/01/29 00:17:39;;;;;;;9.03;2.43;;;9.10;99.90;;;;;;483027;246;27896;-71
2021/01/29 00:19:39;;;;;;;7.00;2.40;;;9.10;99.90;;;;;;483101;246;27965;-72
2021/01/29 00:21:41;;;;;;;3.70;2.60;;;9.10;99.90;;;;;;483054;246;28208;-72
2021/01/29 00:23:42;;;;;;;12.93;2.70;;;9.10;99.90;;;;;;483127;246;27903;-72
2021/01/29 00:25:43;;;;;;;5.47;2.90;;;9.10;99.90;;;;;;483186;246;27859;-71
2021/01/29 00:27:44;;;;;;;4.80;2.30;;;9.10;99.90;;;;;;483254;246;28428;-74
2021/01/29 00:29:46;;;;;;;4.87;2.43;;;9.10;99.90;;;;;;483265;246;28472;-72
2021/01/29 00:31:47;;;;;;;3.80;2.53;;;9.10;99.90;;;;;;483117;246;28205;-72
2021/01/29 00:33:48;;;;;;;2.20;2.00;;;9.10;99.90;;;;;;483054;246;28369;-71
2021/01/29 00:35:49;;;;;;;3.00;2.30;;;9.10;99.90;;;;;;483032;246;28346;-71
2021/01/29 00:37:51;;;;;;;2.60;2.10;;;9.10;99.90;;;;;;483125;246;28593;-72
2021/01/29 00:39:52;;;;;;;2.50;2.17;;;9.20;99.90;;;;;;483045;246;27987;-72
2021/01/29 00:41:53;;;;;;;5.17;2.10;;;9.10;99.90;;;;;;482733;246;28162;-71
2021/01/29 00:43:54;;;;;;;1.93;1.80;;;9.10;99.90;;;;;;483102;246;28109;-71
2021/01/29 00:45:56;;;;;;;3.13;1.70;;;9.10;99.90;;;;;;483135;246;27960;-71
2021/01/29 00:47:57;;;;;;;1.90;1.73;;;9.10;99.90;;;;;;483155;246;27982;-72
2021/01/29 00:49:58;;;;;;;1.50;1.40;;;9.10;99.90;;;;;;483109;246;27857;-70
2021/01/29 00:51:59;;;;;;;2.63;1.50;;;9.20;99.90;;;;;;483038;246;28002;-71
2021/01/29 00:54:01;;;;;;;1.30;1.20;;;9.10;99.90;;;;;;483130;246;28498;-71
2021/01/29 00:56:02;;;;;;;4.53;2.00;;;9.10;99.90;;;;;;483116;246;27890;-70
2021/01/29 00:58:03;;;;;;;8.93;2.47;;;9.20;99.90;;;;;;483176;246;28023;-70
2021/01/29 01:00:04;;;;;;;3.53;1.87;;;9.20;99.90;;;;;;483198;246;28009;-72
2021/01/29 01:02:06;;;;;;;1.40;1.30;;;9.20;99.90;;;;;;483192;246;28212;-71
2021/01/29 01:04:07;;;;;;;1.37;1.20;;;9.20;99.90;;;;;;483200;246;27971;-73
2021/01/29 01:06:08;;;;;;;1.27;1.17;;;9.20;99.90;;;;;;483164;246;27986;-71
2021/01/29 01:08:09;;;;;;;1.30;1.20;;;9.10;99.90;;;;;;483167;245;28364;-71
2021/01/29 01:10:11;;;;;;;3.43;1.30;;;9.20;99.90;;;;;;483108;246;28389;-72
2021/01/29 01:12:12;;;;;;;1.70;1.10;;;9.10;99.90;;;;;;483318;246;28404;-71
2021/01/29 01:14:13;;;;;;;0.97;0.97;;;9.10;99.90;;;;;;483337;246;28726;-72
2021/01/29 01:16:14;;;;;;;0.87;0.87;;;9.10;99.90;;;;;;483318;246;28823;-71
2021/01/29 01:18:16;;;;;;;1.00;1.00;;;9.10;99.90;;;;;;483307;246;28569;-71
2021/01/29 01:20:17;;;;;;;0.90;0.77;;;9.10;99.90;;;;;;483201;246;27728;-71
2021/01/29 01:22:18;;;;;;;1.43;1.00;;;9.20;99.90;;;;;;483235;246;28052;-71
2021/01/29 01:24:19;;;;;;;5.03;1.00;;;9.20;99.90;;;;;;483238;246;28086;-72
2021/01/29 01:26:21;;;;;;;0.90;0.90;;;9.20;99.90;;;;;;483214;246;27978;-71
2021/01/29 01:28:22;;;;;;;1.90;1.00;;;9.20;99.90;;;;;;483202;246;27862;-71
2021/01/29 01:30:23;;;;;;;0.90;0.90;;;9.20;99.90;;;;;;483116;246;28287;-72
2021/01/29 01:32:24;;;;;;;0.90;0.90;;;9.20;99.90;;;;;;483147;246;27624;-71
2021/01/29 01:34:26;;;;;;;1.00;1.00;;;9.20;99.90;;;;;;483172;246;28019;-72
2021/01/29 01:36:27;;;;;;;1.03;0.93;;;9.20;99.90;;;;;;483186;246;28045;-70
2021/01/29 01:38:28;;;;;;;1.00;1.00;;;9.20;99.90;;;;;;483141;246;27859;-71
2021/01/29 01:40:29;;;;;;;0.90;0.90;;;9.30;99.90;;;;;;483066;246;27744;-73
2021/01/29 01:42:31;;;;;;;0.80;0.80;;;9.20;99.90;;;;;;483152;246;28189;-71
2021/01/29 01:44:32;;;;;;;0.90;0.90;;;9.20;99.90;;;;;;483157;246;27877;-73
2021/01/29 01:46:33;;;;;;;0.90;0.90;;;9.20;99.90;;;;;;483140;246;27939;-71
2021/01/29 01:48:34;;;;;;;1.43;1.13;;;9.20;99.90;;;;;;483110;246;28196;-71
2021/01/29 01:50:36;;;;;;;1.00;1.00;;;9.20;99.90;;;;;;483057;246;28468;-71
2021/01/29 01:52:37;;;;;;;1.30;0.93;;;9.20;99.90;;;;;;483127;246;28587;-71
2021/01/29 01:54:38;;;;;;;0.90;0.90;;;9.20;99.90;;;;;;483134;246;28302;-72
2021/01/29 01:56:39;;;;;;;1.20;1.20;;;9.30;99.90;;;;;;483176;246;28422;-71
2021/01/29 01:58:41;;;;;;;0.80;0.80;;;9.30;99.90;;;;;;483245;246;27857;-71
2021/01/29 02:00:42;;;;;;;1.03;1.03;;;9.30;99.90;;;;;;483195;246;28097;-72
2021/01/29 02:02:43;;;;;;;0.93;0.90;;;9.30;99.90;;;;;;483251;246;27549;-71
2021/01/29 02:04:44;;;;;;;1.33;1.00;;;9.30;99.90;;;;;;483177;246;28327;-71
2021/01/29 02:06:46;;;;;;;1.00;1.00;;;9.30;99.90;;;;;;483118;246;28182;-72
2021/01/29 02:08:47;;;;;;;1.00;1.00;;;9.30;99.90;;;;;;483153;245;27771;-72
2021/01/29 02:10:48;;;;;;;1.10;1.10;;;9.30;99.90;;;;;;483092;246;27888;-70
2021/01/29 02:12:49;;;;;;;1.10;1.10;;;9.30;99.90;;;;;;483124;246;28016;-72
2021/01/29 02:14:51;;;;;;;2.03;1.40;;;9.30;99.90;;;;;;483153;246;27992;-71
2021/01/29 02:16:52;;;;;;;1.53;1.30;;;9.30;99.90;;;;;;483220;246;27635;-73
2021/01/29 02:18:53;;;;;;;1.30;1.30;;;9.30;99.90;;;;;;483158;246;27617;-73
2021/01/29 02:20:54;;;;;;;1.80;1.40;;;9.30;99.90;;;;;;483072;246;28115;-72
2021/01/29 02:22:56;;;;;;;2.20;1.40;;;9.30;99.90;;;;;;483095;246;28066;-72
2021/01/29 02:24:57;;;;;;;1.70;1.60;;;9.30;99.90;;;;;;483145;246;28660;-72
2021/01/29 02:26:58;;;;;;;1.60;1.50;;;9.40;99.90;;;;;;483166;246;28556;-73
2021/01/29 02:28:59;;;;;;;1.60;1.50;;;9.40;99.90;;;;;;483135;246;28536;-72
2021/01/29 02:31:01;;;;;;;1.97;1.87;;;9.40;99.90;;;;;;483099;246;28375;-71
2021/01/29 02:33:02;;;;;;;4.20;1.83;;;9.30;99.90;;;;;;483199;246;28664;-73
2021/01/29 02:35:03;;;;;;;2.27;1.77;;;9.40;99.90;;;;;;483269;246;28521;-72
2021/01/29 02:37:04;;;;;;;3.03;1.80;;;9.40;99.90;;;;;;483242;246;28016;-73
2021/01/29 02:39:06;;;;;;;1.50;1.40;;;9.40;99.90;;;;;;483077;245;27540;-71
2021/01/29 02:41:07;;;;;;;1.87;1.77;;;9.40;99.90;;;;;;483081;246;28015;-72
2021/01/29 02:43:08;;;;;;;1.60;1.50;;;9.40;99.90;;;;;;483176;246;27973;-73
2021/01/29 02:45:09;;;;;;;2.53;1.83;;;9.40;99.90;;;;;;483168;246;28117;-72
2021/01/29 02:47:11;;;;;;;2.63;1.90;;;9.40;99.90;;;;;;483176;246;27905;-73
2021/01/29 02:49:12;;;;;;;2.00;1.90;;;9.40;99.90;;;;;;483214;246;27894;-71
2021/01/29 02:51:13;;;;;;;2.10;1.90;;;9.40;99.90;;;;;;483260;246;28103;-72
2021/01/29 02:53:14;;;;;;;1.90;1.80;;;9.40;99.90;;;;;;483307;246;28046;-74
2021/01/29 02:55:16;;;;;;;2.53;2.33;;;9.40;99.90;;;;;;483296;246;28027;-70
2021/01/29 02:57:17;;;;;;;1.90;1.80;;;9.40;99.90;;;;;;483220;246;28113;-72
2021/01/29 02:59:18;;;;;;;4.13;2.57;;;9.40;99.90;;;;;;483248;246;28062;-72
2021/01/29 03:01:19;;;;;;;4.37;3.10;;;9.40;99.90;;;;;;483115;246;27967;-72
2021/01/29 03:03:21;;;;;;;2.80;2.50;;;9.40;99.90;;;;;;483216;246;28599;-74
2021/01/29 03:05:22;;;;;;;2.57;2.37;;;9.40;99.90;;;;;;483201;246;27922;-72
2021/01/29 03:07:23;;;;;;;2.50;2.30;;;9.40;99.90;;;;;;483113;246;28235;-72
2021/01/29 03:09:24;;;;;;;3.53;2.40;;;9.40;99.90;;;;;;483123;246;28557;-72
2021/01/29 03:11:26;;;;;;;3.33;1.73;;;9.50;99.90;;;;;;483099;246;28611;-72
2021/01/29 03:13:27;;;;;;;2.77;2.57;;;9.50;99.90;;;;;;483144;246;28479;-73
2021/01/29 03:15:28;;;;;;;2.00;1.90;;;9.50;99.90;;;;;;483139;246;27986;-72
2021/01/29 03:17:29;;;;;;;3.17;1.80;;;9.40;99.90;;;;;;483116;246;27967;-72
2021/01/29 03:19:31;;;;;;;1.80;1.70;;;9.40;99.90;;;;;;483123;246;28004;-73
2021/01/29 03:21:32;;;;;;;7.10;2.37;;;9.40;99.90;;;;;;483067;246;27874;-72
2021/01/29 03:23:33;;;;;;;4.57;1.97;;;9.40;99.90;;;;;;483123;246;27991;-72
2021/01/29 03:25:34;;;;;;;4.97;1.93;;;9.40;99.90;;;;;;483148;246;27964;-72
2021/01/29 03:27:36;;;;;;;1.77;1.57;;;9.40;99.90;;;;;;483150;246;28271;-73
2021/01/29 03:29:37;;;;;;;8.33;1.60;;;9.30;99.90;;;;;;483143;246;28015;-74
2021/01/29 03:31:38;;;;;;;1.87;1.50;;;9.40;99.90;;;;;;483159;246;27740;-72
2021/01/29 03:33:39;;;;;;;3.00;2.13;;;9.40;99.90;;;;;;483218;246;27899;-72
2021/01/29 03:35:41;;;;;;;1.90;1.40;;;9.40;99.90;;;;;;483206;246;27526;-73
2021/01/29 03:37:42;;;;;;;1.50;1.40;;;9.40;99.90;;;;;;483182;246;28180;-72
2021/01/29 03:39:43;;;;;;;1.83;1.40;;;9.40;99.90;;;;;;483151;246;27919;-72
2021/01/29 03:41:44;;;;;;;2.73;1.50;;;9.40;99.90;;;;;;483160;246;28511;-72
2021/01/29 03:43:46;;;;;;;6.77;1.40;;;9.30;99.90;;;;;;483191;246;29353;-71
2021/01/29 03:45:47;;;;;;;1.40;1.30;;;9.30;99.90;;;;;;483042;246;28436;-73
2021/01/29 03:47:48;;;;;;;8.67;1.70;;;9.30;99.90;;;;;;483111;246;28329;-73
2021/01/29 03:49:49;;;;;;;2.50;1.30;;;9.30;99.90;;;;;;483095;246;28474;-71
2021/01/29 03:51:51;;;;;;;1.40;1.30;;;9.30;99.90;;;;;;483028;246;28397;-72
2021/01/29 03:53:52;;;;;;;1.50;1.40;;;9.30;99.90;;;;;;483122;246;27999;-72
2021/01/29 03:55:53;;;;;;;1.20;1.20;;;9.30;99.90;;;;;;483171;246;28009;-73
2021/01/29 03:57:54;;;;;;;2.00;1.20;;;9.30;99.90;;;;;;483111;246;28001;-73
2021/01/29 03:59:56;;;;;;;1.37;1.07;;;9.30;99.90;;;;;;483147;246;28007;-72
2021/01/29 04:01:57;;;;;;;1.20;1.10;;;9.30;99.90;;;;;;483071;246;28044;-73
2021/01/29 04:03:58;;;;;;;1.20;1.10;;;9.30;99.90;;;;;;483163;246;27862;-72
2021/01/29 04:05:59;;;;;;;2.47;0.90;;;9.30;99.90;;;;;;483154;246;28027;-73
2021/01/29 04:08:01;;;;;;;3.93;2.33;;;9.30;99.90;;;;;;483122;246;28353;-72
2021/01/29 04:10:02;;;;;;;1.00;1.00;;;9.20;99.90;;;;;;483066;246;28078;-72
2021/01/29 04:12:03;;;;;;;0.97;0.97;;;9.30;99.90;;;;;;483126;246;28000;-72
2021/01/29 04:14:04;;;;;;;1.00;1.00;;;9.20;99.90;;;;;;483221;246;28164;-71
2021/01/29 04:16:06;;;;;;;3.50;1.03;;;9.30;99.90;;;;;;483200;246;27654;-71
2021/01/29 04:18:07;;;;;;;3.13;0.90;;;9.30;99.90;;;;;;483176;246;28090;-71
2021/01/29 04:20:08;;;;;;;1.20;1.00;;;9.30;99.90;;;;;;483101;246;27777;-72
2021/01/29 04:22:09;;;;;;;1.00;1.00;;;9.20;99.90;;;;;;483196;246;28552;-74
2021/01/29 04:24:11;;;;;;;1.30;1.20;;;9.30;99.90;;;;;;483218;246;28644;-72
2021/01/29 04:26:12;;;;;;;1.00;1.00;;;9.20;99.90;;;;;;483192;246;28460;-73
2021/01/29 04:28:13;;;;;;;1.47;0.90;;;9.30;99.90;;;;;;483252;246;29144;-71
2021/01/29 04:30:17;;;;;;;0.80;0.80;;;9.30;99.90;;;;;;483180;246;30589;-72
2021/01/29 04:32:16;;;;;;;1.27;1.10;;;9.30;99.90;;;;;;483183;246;28077;-74
2021/01/29 04:34:17;;;;;;;0.90;0.90;;;9.20;99.90;;;;;;483289;246;27872;-72
2021/01/29 04:36:18;;;;;;;0.90;0.90;;;9.30;99.90;;;;;;483280;246;27733;-72
2021/01/29 04:38:19;;;;;;;0.80;0.80;;;9.20;99.90;;;;;;483283;246;27493;-72
2021/01/29 04:40:21;;;;;;;0.80;0.80;;;9.30;99.90;;;;;;483226;246;27628;-72
2021/01/29 04:42:22;;;;;;;1.20;1.00;;;9.30;99.90;;;;;;483266;246;28184;-74
2021/01/29 04:44:23;;;;;;;0.80;0.80;;;9.20;99.90;;;;;;483244;246;27985;-72
2021/01/29 04:46:24;;;;;;;1.90;1.10;;;9.30;99.90;;;;;;483220;246;28094;-73
2021/01/29 04:48:26;;;;;;;0.80;0.80;;;9.30;99.90;;;;;;483201;246;28084;-72
2021/01/29 04:50:27;;;;;;;0.90;0.90;;;9.30;99.90;;;;;;483141;246;27839;-72
2021/01/29 04:52:28;;;;;;;0.90;0.80;;;9.30;99.90;;;;;;483154;246;28012;-73
2021/01/29 04:54:29;;;;;;;1.07;0.97;;;9.40;99.90;;;;;;483144;246;28125;-72
2021/01/29 04:56:31;;;;;;;0.80;0.80;;;9.30;99.90;;;;;;483147;246;28033;-72
2021/01/29 04:58:32;;;;;;;0.90;0.90;;;9.40;99.90;;;;;;483112;246;28007;-73
2021/01/29 05:00:33;;;;;;;0.77;0.77;;;9.40;99.90;;;;;;483181;246;28535;-71
2021/01/29 05:02:34;;;;;;;0.80;0.80;;;9.30;99.90;;;;;;483204;246;28489;-72
2021/01/29 05:04:36;;;;;;;1.00;1.00;;;9.30;99.90;;;;;;483225;246;28447;-72
2021/01/29 05:06:37;;;;;;;0.80;0.80;;;9.40;99.90;;;;;;483202;246;28398;-72
2021/01/29 05:08:38;;;;;;;0.80;0.70;;;9.30;99.90;;;;;;483177;246;28118;-73
2021/01/29 05:10:39;;;;;;;0.87;0.70;;;9.40;99.90;;;;;;483125;246;27871;-72
2021/01/29 05:12:40;;;;;;;1.97;0.80;;;9.40;99.90;;;;;;483214;246;27689;-72
2021/01/29 05:14:42;;;;;;;0.80;0.80;;;9.40;99.90;;;;;;483190;246;27998;-72
2021/01/29 05:16:43;;;;;;;1.73;0.80;;;9.40;99.90;;;;;;483134;246;27649;-71
2021/01/29 05:18:44;;;;;;;0.70;0.70;;;9.40;99.90;;;;;;483089;246;27757;-73
2021/01/29 05:20:45;;;;;;;2.80;0.90;;;9.40;99.90;;;;;;483059;246;28052;-72
2021/01/29 05:22:47;;;;;;;0.80;0.80;;;9.40;99.90;;;;;;483091;246;28496;-72
2021/01/29 05:24:48;;;;;;;0.80;0.80;;;9.40;99.90;;;;;;483150;246;28117;-72
2021/01/29 05:26:49;;;;;;;1.53;0.80;;;9.40;99.90;;;;;;483139;246;27990;-74
2021/01/29 05:28:50;;;;;;;3.40;0.80;;;9.40;99.90;;;;;;483173;246;28120;-72
2021/01/29 05:30:52;;;;;;;3.27;1.10;;;9.40;99.90;;;;;;483055;246;28078;-71
2021/01/29 05:32:53;;;;;;;0.90;0.80;;;9.40;99.90;;;;;;483120;246;28009;-72
2021/01/29 05:34:54;;;;;;;0.90;0.90;;;9.30;99.90;;;;;;483153;246;27644;-73
2021/01/29 05:36:55;;;;;;;0.80;0.80;;;9.40;99.90;;;;;;483119;246;28018;-72
2021/01/29 05:38:57;;;;;;;0.80;0.80;;;9.40;99.90;;;;;;483103;246;28500;-72
2021/01/29 05:40:58;;;;;;;1.27;0.77;;;9.30;99.90;;;;;;483050;246;28344;-72
2021/01/29 05:42:59;;;;;;;0.80;0.80;;;9.30;99.90;;;;;;483088;246;28519;-72
2021/01/29 05:45:00;;;;;;;0.80;0.80;;;9.20;99.90;;;;;;483135;246;28103;-73
2021/01/29 05:47:02;;;;;;;0.80;0.80;;;9.20;99.90;;;;;;483143;246;28727;-72
2021/01/29 05:49:03;;;;;;;0.80;0.80;;;9.10;99.90;;;;;;483180;246;27964;-72
2021/01/29 05:51:04;;;;;;;0.80;0.80;;;9.10;99.90;;;;;;483127;246;28017;-72
2021/01/29 05:53:05;;;;;;;1.13;0.80;;;9.00;99.90;;;;;;483132;246;27970;-70
2021/01/29 05:55:07;;;;;;;0.73;0.73;;;9.00;99.90;;;;;;483237;246;27951;-70
2021/01/29 05:57:08;;;;;;;1.20;0.93;;;8.90;99.90;;;;;;483239;246;28057;-72
2021/01/29 05:59:09;;;;;;;0.93;0.93;;;8.90;99.90;;;;;;483242;246;27999;-72
2021/01/29 06:01:10;;;;;;;0.90;0.90;;;8.80;99.90;;;;;;483254;246;27897;-73
2021/01/29 06:03:12;;;;;;;1.73;0.90;;;8.70;99.90;;;;;;483278;246;27724;-71
2021/01/29 06:05:13;;;;;;;0.93;0.93;;;8.70;99.90;;;;;;483311;246;28031;-72
2021/01/29 06:07:14;;;;;;;1.13;0.90;;;8.70;99.90;;;;;;483293;246;27971;-71
2021/01/29 06:09:15;;;;;;;0.90;0.90;;;8.60;99.90;;;;;;483280;246;28012;-71
2021/01/29 06:11:18;;;;;;;1.10;1.00;;;8.60;99.90;;;;;;483262;246;28101;-74
2021/01/29 06:13:18;;;;;;;1.80;0.90;;;8.50;99.90;;;;;;483259;246;27927;-71
2021/01/29 06:15:19;;;;;;;0.90;0.90;;;8.50;99.90;;;;;;483287;246;28001;-72
2021/01/29 06:17:20;;;;;;;1.00;0.90;;;8.50;99.90;;;;;;483221;246;28057;-72
2021/01/29 06:19:22;;;;;;;1.20;1.10;;;8.50;99.90;;;;;;483199;246;28197;-71
2021/01/29 06:21:23;;;;;;;0.80;0.80;;;8.50;99.90;;;;;;483096;246;28564;-73
2021/01/29 06:23:24;;;;;;;1.90;1.00;;;8.40;99.90;;;;;;483161;246;28185;-72
2021/01/29 06:25:25;;;;;;;2.00;1.00;;;8.40;99.90;;;;;;483168;246;28366;-71
2021/01/29 06:27:27;;;;;;;1.27;1.00;;;8.40;99.90;;;;;;483114;246;27687;-73
2021/01/29 06:29:28;;;;;;;1.53;1.00;;;8.40;99.90;;;;;;483142;246;28032;-71
2021/01/29 06:31:29;;;;;;;1.37;1.00;;;8.40;99.90;;;;;;483065;246;27728;-73
2021/01/29 06:33:30;;;;;;;0.80;0.80;;;8.30;99.90;;;;;;483143;246;27993;-72
2021/01/29 06:35:32;;;;;;;1.23;0.90;;;8.30;99.90;;;;;;483140;246;28165;-72
2021/01/29 06:37:33;;;;;;;1.00;1.00;;;8.40;99.90;;;;;;483141;246;27884;-74
2021/01/29 06:39:34;;;;;;;0.90;0.90;;;8.30;99.90;;;;;;483161;246;27904;-72
2021/01/29 06:41:35;;;;;;;0.77;0.77;;;8.30;99.90;;;;;;483117;246;27779;-71
2021/01/29 06:43:37;;;;;;;0.80;0.80;;;8.30;99.90;;;;;;483232;246;28032;-72
2021/01/29 06:45:38;;;;;;;0.90;0.90;;;8.30;99.90;;;;;;483229;246;28361;-72
2021/01/29 06:47:39;;;;;;;1.73;0.97;;;8.40;99.90;;;;;;483240;246;27781;-72
2021/01/29 06:49:40;;;;;;;0.83;0.83;;;8.40;99.90;;;;;;483142;246;27882;-72
2021/01/29 06:51:42;;;;;;;1.17;1.00;;;8.40;99.90;;;;;;483076;246;28062;-72
2021/01/29 06:53:43;;;;;;;1.73;1.00;;;8.40;99.90;;;;;;483118;246;28099;-72
2021/01/29 06:55:44;;;;;;;1.77;1.00;;;8.40;99.90;;;;;;483142;246;29502;-73
2021/01/29 06:57:45;;;;;;;1.00;0.90;;;8.30;99.90;;;;;;483100;246;28642;-73
2021/01/29 06:59:47;;;;;;;0.87;0.87;;;8.30;99.90;;;;;;483119;246;28405;-72
2021/01/29 07:01:48;;;;;;;2.30;0.90;;;8.30;99.90;;;;;;483057;246;28624;-71
2021/01/29 07:03:49;;;;;;;1.23;1.00;;;8.30;99.90;;;;;;483137;246;28480;-73
2021/01/29 07:05:50;;;;;;;0.90;0.90;;;8.30;99.90;;;;;;483140;246;28288;-72
2021/01/29 07:07:52;;;;;;;1.17;1.07;;;8.20;99.90;;;;;;483113;246;28009;-72
2021/01/29 07:09:53;;;;;;;1.33;0.97;;;8.20;99.90;;;;;;483116;246;28043;-73
2021/01/29 07:11:54;;;;;;;0.90;0.90;;;8.20;99.90;;;;;;483072;246;28060;-72
2021/01/29 07:13:55;;;;;;;1.10;1.10;;;8.20;99.90;;;;;;483140;246;28003;-73
2021/01/29 07:15:57;;;;;;;0.90;0.90;;;8.10;99.90;;;;;;483162;246;28093;-72
2021/01/29 07:17:58;;;;;;;2.77;0.97;;;8.20;99.90;;;;;;483203;246;28009;-71
2021/01/29 07:19:59;;;;;;;2.60;1.00;;;8.20;99.90;;;;;;483148;246;27659;-73
2021/01/29 07:22:00;;;;;;;2.40;0.90;;;8.20;99.90;;;;;;483095;246;28117;-72
2021/01/29 07:24:02;;;;;;;1.10;1.10;;;8.20;99.90;;;;;;483122;246;28024;-72
2021/01/29 07:26:03;;;;;;;1.33;1.10;;;8.20;99.90;;;;;;483135;246;27621;-72
2021/01/29 07:28:04;;;;;;;1.10;1.10;;;8.20;99.90;;;;;;483179;246;28075;-72
2021/01/29 07:30:05;;;;;;;1.33;1.23;;;8.20;99.90;;;;;;483188;246;27717;-73
2021/01/29 07:32:07;;;;;;;1.30;1.20;;;8.20;99.90;;;;;;483259;246;28018;-71
2021/01/29 07:34:08;;;;;;;1.70;1.07;;;8.30;99.90;;;;;;483279;246;28851;-72
2021/01/29 07:36:09;;;;;;;1.37;1.20;;;8.30;99.90;;;;;;483286;246;28546;-72
2021/01/29 07:38:10;;;;;;;4.07;1.20;;;8.30;99.90;;;;;;483253;246;28355;-72
2021/01/29 07:40:12;;;;;;;1.70;1.10;;;8.30;99.90;;;;;;483252;246;28513;-74
2021/01/29 07:42:13;;;;;;;2.00;1.30;;;8.30;99.90;;;;;;483299;246;28553;-72
2021/01/29 07:44:15;;;;;;;1.67;1.00;;;8.30;99.90;;;;;;483284;245;28111;-72
2021/01/29 07:46:15;;;;;;;1.60;1.27;;;8.30;99.90;;;;;;483246;246;28008;-71
2021/01/29 07:48:17;;;;;;;2.10;1.40;;;8.40;99.90;;;;;;483246;246;27957;-72
2021/01/29 07:50:18;;;;;;;1.80;1.23;;;8.40;99.90;;;;;;483196;246;28086;-74
2021/01/29 07:52:19;;;;;;;2.20;1.40;;;8.40;99.90;;;;;;483108;246;27989;-72
2021/01/29 07:54:20;;;;;;;1.53;1.00;;;8.40;99.90;;;;;;483041;246;28244;-72
2021/01/29 07:56:22;;;;;;;2.60;1.20;;;8.40;99.90;;;;;;483127;246;27706;-72
2021/01/29 07:58:23;;;;;;;1.47;1.37;;;8.40;99.90;;;;;;483117;246;27970;-72
2021/01/29 08:00:24;;;;;;;4.70;2.00;;;8.40;99.90;;;;;;483065;246;28040;-72
2021/01/29 08:02:25;;;;;;;3.43;1.30;;;8.40;99.90;;;;;;483118;246;28143;-72
2021/01/29 08:04:27;;;;;;;2.40;1.17;;;8.50;99.90;;;;;;483179;246;28043;-74
2021/01/29 08:06:28;;;;;;;3.57;1.30;;;8.50;99.90;;;;;;483151;246;28012;-73
2021/01/29 08:08:29;;;;;;;3.57;1.67;;;8.50;99.90;;;;;;483151;246;28006;-72
2021/01/29 08:10:30;;;;;;;1.93;1.07;;;8.50;99.90;;;;;;483062;246;27983;-72
2021/01/29 08:12:32;;;;;;;2.03;1.40;;;8.50;99.90;;;;;;483156;246;28269;-72
2021/01/29 08:14:33;;;;;;;4.20;1.40;;;8.50;99.90;;;;;;483236;246;28400;-72
2021/01/29 08:16:34;;;;;;;5.50;1.60;;;8.50;99.90;;;;;;483159;246;28625;-73
2021/01/29 08:18:35;;;;;;;3.03;1.10;;;8.60;99.90;;;;;;483132;246;28463;-73
2021/01/29 08:20:37;;;;;;;2.63;1.50;;;8.60;99.90;;;;;;483058;246;28550;-72
2021/01/29 08:22:38;;;;;;;3.50;1.50;;;8.60;99.90;;;;;;483088;246;28177;-71
2021/01/29 08:24:39;;;;;;;8.80;1.80;;;8.70;99.90;;;;;;483093;246;28223;-72
2021/01/29 08:26:40;;;;;;;2.10;1.30;;;8.70;99.90;;;;;;483117;246;27632;-73
2021/01/29 08:28:42;;;;;;;1.50;1.40;;;8.70;99.90;;;;;;483119;246;27881;-73
2021/01/29 08:30:43;;;;;;;2.30;1.30;;;8.70;99.90;;;;;;483070;246;27891;-72
2021/01/29 08:32:44;;;;;;;3.20;1.63;;;8.80;99.90;;;;;;483081;246;27647;-71
2021/01/29 08:34:45;;;;;;;6.93;1.40;;;8.80;99.90;;;;;;483128;246;27840;-72
2021/01/29 08:36:47;;;;;;;11.00;1.60;;;8.80;99.90;;;;;;483104;246;28042;-73
2021/01/29 08:38:48;;;;;;;3.33;1.50;;;8.90;99.90;;;;;;483103;246;28023;-73
2021/01/29 08:40:49;;;;;;;3.17;1.60;;;8.90;99.90;;;;;;483055;246;27764;-72
2021/01/29 08:42:50;;;;;;;2.73;1.50;;;9.00;99.90;;;;;;483109;246;28404;-73
2021/01/29 08:44:52;;;;;;;6.40;1.67;;;8.90;99.90;;;;;;483124;246;27622;-72
2021/01/29 08:46:53;;;;;;;4.17;1.50;;;8.80;99.90;;;;;;483120;246;28111;-72
2021/01/29 08:48:54;;;;;;;9.10;2.23;;;8.80;99.90;;;;;;483180;246;28017;-74
2021/01/29 08:50:55;;;;;;;7.10;2.00;;;8.80;99.90;;;;;;483219;245;28487;-72
2021/01/29 08:52:57;;;;;;;6.93;1.30;;;8.80;99.90;;;;;;483305;246;28380;-74
2021/01/29 08:54:58;;;;;;;9.63;1.70;;;8.80;99.90;;;;;;483300;246;28413;-71
2021/01/29 08:56:59;;;;;;;13.17;2.00;;;8.80;99.90;;;;;;483284;246;28840;-72
2021/01/29 08:59:00;;;;;;;2.93;1.77;;;8.80;99.90;;;;;;483294;246;29297;-71
2021/01/29 09:01:02;;;;;;;6.67;1.50;;;8.70;99.90;;;;;;483225;246;27735;-72
2021/01/29 09:03:03;;;;;;;5.60;2.13;;;8.80;99.90;;;;;;483262;246;27969;-72
2021/01/29 09:05:04;;;;;;;9.03;2.00;;;8.80;99.90;;;;;;483232;246;28084;-71
2021/01/29 09:07:05;;;;;;;6.10;1.83;;;8.80;99.90;;;;;;483195;246;28169;-72
2021/01/29 09:09:07;;;;;;;7.63;1.90;;;8.90;99.90;;;;;;483127;246;27741;-71
2021/01/29 09:11:08;;;;;;;6.10;2.03;;;8.90;99.90;;;;;;483080;246;27537;-71
2021/01/29 09:13:09;;;;;;;5.07;1.80;;;8.90;99.90;;;;;;483135;246;27898;-72
2021/01/29 09:15:10;;;;;;;8.37;2.33;;;8.90;99.90;;;;;;483156;246;27851;-72
2021/01/29 09:17:12;;;;;;;6.23;1.97;;;8.80;99.90;;;;;;483151;246;27904;-72
2021/01/29 09:19:13;;;;;;;11.17;2.40;;;8.80;99.90;;;;;;483118;246;28335;-73
2021/01/29 09:21:14;;;;;;;8.97;2.40;;;8.90;99.90;;;;;;483047;246;27907;-72
2021/01/29 09:23:15;;;;;;;7.27;2.43;;;8.90;99.90;;;;;;483118;246;28033;-73
2021/01/29 09:25:17;;;;;;;7.73;2.70;;;9.00;99.90;;;;;;483127;246;27979;-71
2021/01/29 09:27:18;;;;;;;7.63;2.40;;;8.90;99.90;;;;;;483126;246;28457;-73
2021/01/29 09:29:19;;;;;;;7.93;1.90;;;9.10;99.90;;;;;;483106;246;28459;-72
2021/01/29 09:31:20;;;;;;;6.43;1.80;;;9.10;99.90;;;;;;483089;246;28618;-72
2021/01/29 09:33:22;;;;;;;5.40;1.87;;;9.20;99.90;;;;;;483128;246;30333;-71
2021/01/29 09:35:23;;;;;;;4.33;2.03;;;9.20;99.90;;;;;;483171;246;28484;-70
2021/01/29 09:37:24;;;;;;;6.20;2.27;;;9.30;99.90;;;;;;483131;246;28214;-73
2021/01/29 09:39:27;;;;;;;7.80;2.07;;;9.20;99.90;;;;;;483146;246;28004;-72
2021/01/29 09:41:27;;;;;;;6.77;1.73;;;9.20;99.90;;;;;;483389;246;27961;-71
2021/01/29 09:43:29;;;;;;;8.30;2.40;;;9.30;99.90;;;;;;483274;246;27866;-72
2021/01/29 09:45:29;;;;;;;7.77;2.03;;;9.20;99.90;;;;;;483420;246;27838;-74
2021/01/29 09:47:30;;;;;;;8.60;1.80;;;9.30;99.90;;;;;;483484;246;28073;-73
2021/01/29 09:49:32;;;;;;;4.30;1.80;;;9.20;99.90;;;;;;483291;246;28028;-72
2021/01/29 09:51:33;;;;;;;11.30;2.40;;;9.30;99.90;;;;;;483051;246;28000;-72
2021/01/29 09:53:34;;;;;;;8.03;2.20;;;9.20;99.90;;;;;;483147;246;28090;-72
2021/01/29 09:55:35;;;;;;;6.00;1.73;;;9.20;99.90;;;;;;483157;246;28109;-73
2021/01/29 09:57:37;;;;;;;7.33;2.00;;;9.20;99.90;;;;;;483143;246;28143;-74
2021/01/29 09:59:38;;;;;;;7.43;1.57;;;9.20;99.90;;;;;;483149;246;28090;-73
2021/01/29 10:01:39;;;;;;;8.00;2.33;;;9.30;99.90;;;;;;483065;246;28103;-72
2021/01/29 10:03:40;;;;;;;5.53;2.00;;;9.30;99.90;;;;;;483141;246;28389;-71
2021/01/29 10:05:42;;;;;;;6.47;2.17;;;9.20;99.90;;;;;;483147;246;28559;-72
2021/01/29 10:07:43;;;;;;;5.63;1.83;;;9.20;99.90;;;;;;483119;246;28520;-72
2021/01/29 10:09:44;;;;;;;8.33;2.10;;;9.10;99.90;;;;;;483129;246;28482;-72
2021/01/29 10:11:46;;;;;;;5.13;2.03;;;9.00;99.90;;;;;;483057;246;28594;-73
2021/01/29 10:13:47;;;;;;;9.53;2.10;;;8.90;99.90;;;;;;483201;246;27971;-71
2021/01/29 10:15:48;;;;;;;8.50;2.60;;;8.80;99.90;;;;;;483270;246;28015;-72
2021/01/29 10:17:49;;;;;;;3.33;1.80;;;8.90;99.90;;;;;;483258;246;27954;-72
2021/01/29 10:19:50;;;;;;;10.70;2.30;;;9.00;99.90;;;;;;483230;245;28153;-72
2021/01/29 10:21:52;;;;;;;6.43;2.20;;;9.00;99.90;;;;;;483144;246;27971;-74
2021/01/29 10:23:53;;;;;;;13.83;3.10;;;9.00;99.90;;;;;;483286;246;27973;-72
2021/01/29 10:25:54;;;;;;;9.33;2.43;;;9.10;99.90;;;;;;483293;246;27889;-72
2021/01/29 10:27:55;;;;;;;7.20;2.03;;;9.00;99.90;;;;;;483306;246;27956;-72
2021/01/29 10:29:57;;;;;;;4.70;2.00;;;9.00;99.90;;;;;;483345;246;27891;-72
2021/01/29 10:31:58;;;;;;;4.63;1.90;;;8.90;99.90;;;;;;483308;246;28016;-73
2021/01/29 10:33:59;;;;;;;7.73;2.17;;;8.80;99.90;;;;;;483358;246;27980;-72
2021/01/29 10:36:00;;;;;;;6.67;2.17;;;8.90;99.90;;;;;;483336;246;28040;-72
2021/01/29 10:38:02;;;;;;;5.77;2.00;;;9.00;99.90;;;;;;483304;246;27799;-72
2021/01/29 10:40:03;;;;;;;4.83;1.80;;;9.00;99.90;;;;;;483244;246;28260;-72